Time;durP1;ratioP1;P1;durP2;ratioP2;P2;SDS_P1;SDS_P2;PMS_P1;PMS_P2;Temp;Humidity;BMP_temperature;BMP_pressure;BME280_temperature;BME280_humidity;BME280_pressure;Samples;Min_cycle;Max_cycle;Signal;HPM_P1;HPM_P2
2023/05/19 00:01:23;;;;;;;10.35;5.13;;;;;;;10.93;75.49;102544.63;5058736;28;20489;-66
2023/05/19 00:04:01;;;;;;;12.63;4.95;;;;;;;11.00;75.38;102546.22;5054176;28;20131;-67
2023/05/19 00:06:31;;;;;;;14.23;5.65;;;;;;;10.96;75.78;102542.25;5055941;28;20092;-66
2023/05/19 00:09:01;;;;;;;12.98;5.35;;;;;;;10.95;75.84;102551.53;5054299;28;20044;-66
2023/05/19 00:11:31;;;;;;;11.38;5.13;;;;;;;10.84;77.02;102536.72;5053382;28;20106;-66
2023/05/19 00:13:59;;;;;;;11.25;5.07;;;;;;;10.88;77.39;102553.50;5064585;28;20124;-66
2023/05/19 00:16:28;;;;;;;12.88;4.80;;;;;;;10.94;77.74;102543.56;5053621;28;20102;-66
2023/05/19 00:19:01;;;;;;;10.65;4.93;;;;;;;11.01;77.31;102547.88;5052442;28;20493;-65
2023/05/19 00:21:30;;;;;;;12.50;4.82;;;;;;;11.01;77.42;102545.13;5053063;28;20055;-65
2023/05/19 00:23:58;;;;;;;10.52;4.75;;;;;;;10.96;78.13;102545.00;5053655;28;20045;-66
2023/05/19 00:26:26;;;;;;;11.02;4.93;;;;;;;10.91;79.30;102542.13;5054159;28;20553;-66
2023/05/19 00:28:59;;;;;;;10.88;4.65;;;;;;;10.82;79.87;102540.75;5050406;28;20120;-67
2023/05/19 00:31:27;;;;;;;11.88;4.88;;;;;;;10.64;81.51;102536.16;5053431;28;20114;-67
2023/05/19 00:33:55;;;;;;;12.70;5.00;;;;;;;10.60;82.29;102533.03;5065296;28;20045;-65
2023/05/19 00:36:24;;;;;;;12.10;4.88;;;;;;;10.64;82.71;102523.34;5051546;28;20053;-66
2023/05/19 00:38:52;;;;;;;8.85;4.90;;;;;;;10.70;82.52;102518.03;5048690;28;20465;-67
2023/05/19 00:41:20;;;;;;;13.48;5.88;;;;;;;10.56;83.87;102515.47;5020847;28;20057;-66
2023/05/19 00:43:48;;;;;;;11.93;4.65;;;;;;;10.61;83.64;102521.06;5033860;28;20041;-66
2023/05/19 00:46:15;;;;;;;9.32;4.30;;;;;;;10.57;84.57;102511.69;5034006;28;20049;-66
2023/05/19 00:48:44;;;;;;;11.18;4.40;;;;;;;10.66;84.03;102512.22;5035279;28;20092;-66
2023/05/19 00:51:15;;;;;;;14.73;5.15;;;;;;;10.61;84.02;102515.63;5034933;28;20131;-66
2023/05/19 00:53:47;;;;;;;10.13;4.80;;;;;;;10.36;86.09;102512.94;5049223;28;20041;-66
2023/05/19 00:56:15;;;;;;;12.25;4.60;;;;;;;10.29;86.80;102514.06;5018508;28;20041;-66
2023/05/19 00:58:44;;;;;;;11.40;5.00;;;;;;;10.33;87.27;102518.00;5045086;28;20099;-66
2023/05/19 01:01:13;;;;;;;13.18;5.03;;;;;;;10.35;87.39;102510.44;5055104;28;20048;-65
2023/05/19 01:03:41;;;;;;;12.25;4.60;;;;;;;10.29;87.41;102512.16;5069349;28;20480;-66
2023/05/19 01:06:13;;;;;;;12.20;4.93;;;;;;;10.37;86.84;102513.78;5056065;28;20065;-64
2023/05/19 01:08:41;;;;;;;11.00;4.63;;;;;;;10.33;86.90;102518.00;5054433;28;20137;-65
2023/05/19 01:11:09;;;;;;;11.63;4.53;;;;;;;10.24;87.29;102520.97;5053501;28;20473;-65
2023/05/19 01:13:37;;;;;;;12.00;5.00;;;;;;;10.16;87.69;102515.81;5053062;28;20049;-65
2023/05/19 01:16:23;;;;;;;11.85;5.07;;;;;;;10.11;88.28;102515.66;5055809;28;20053;-65
2023/05/19 01:18:57;;;;;;;11.95;4.53;;;;;;;10.11;88.51;102509.41;5055037;28;20132;-65
2023/05/19 01:21:35;;;;;;;9.98;4.18;;;;;;;10.07;88.86;102517.16;5032523;28;20045;-67
2023/05/19 01:24:16;;;;;;;11.20;4.55;;;;;;;10.12;89.14;102517.31;5038395;28;20068;-66
2023/05/19 01:26:57;;;;;;;10.75;4.93;;;;;;;10.21;88.17;102521.44;5028322;28;20076;-62
2023/05/19 01:29:46;;;;;;;11.45;4.50;;;;;;;10.12;88.60;102517.31;5065228;28;20045;-63
2023/05/19 01:32:16;;;;;;;12.77;4.53;;;;;;;10.16;88.60;102524.00;5055557;28;20096;-64
2023/05/19 01:34:46;;;;;;;10.95;4.70;;;;;;;10.20;87.89;102522.50;5058018;28;20056;-65
2023/05/19 01:37:14;;;;;;;10.52;4.28;;;;;;;10.02;88.89;102517.81;5045988;28;20406;-63
2023/05/19 01:39:44;;;;;;;9.10;4.25;;;;;;;9.94;89.79;102520.00;5031308;28;20075;-62
2023/05/19 01:42:12;;;;;;;11.20;4.40;;;;;;;9.90;89.60;102514.16;5051086;28;20162;-64
2023/05/19 01:44:40;;;;;;;13.02;4.93;;;;;;;9.94;90.03;102518.13;5035195;28;20053;-66
2023/05/19 01:47:09;;;;;;;9.52;4.28;;;;;;;9.86;90.75;102523.00;5033227;28;20517;-67
2023/05/19 01:49:37;;;;;;;7.95;3.90;;;;;;;9.77;91.12;102520.56;5033016;28;20077;-65
2023/05/19 01:52:05;;;;;;;12.90;4.43;;;;;;;9.90;91.03;102510.59;5063645;28;20472;-66
2023/05/19 01:54:33;;;;;;;11.73;5.25;;;;;;;10.02;89.92;102517.00;5032759;28;20107;-66
2023/05/19 01:57:58;;;;;;;12.82;4.82;;;;;;;9.95;89.83;102500.72;5034006;28;20136;-66
2023/05/19 02:00:49;;;;;;;;;;;;;;;9.92;90.79;102505.78;4995699;28;20050;-66
2023/05/19 02:03:25;;;;;;;8.38;4.03;;;;;;;9.92;90.37;102503.88;5026723;28;19921;-65
2023/05/19 02:06:31;;;;;;;9.25;4.32;;;;;;;9.84;90.98;102501.44;5032775;28;20061;-65
2023/05/19 02:09:02;;;;;;;9.52;4.20;;;;;;;9.82;91.54;102492.66;4990350;28;20042;-66
2023/05/19 02:11:36;;;;;;;11.35;4.93;;;;;;;9.88;91.65;102493.66;5028680;28;20080;-65
2023/05/19 02:14:13;;;;;;;10.23;4.10;;;;;;;9.85;92.08;102494.09;5072871;28;20051;-65
2023/05/19 02:16:41;;;;;;;;;;;;;;;9.88;92.17;102494.47;5056792;28;20052;-66
2023/05/19 02:19:22;;;;;;;12.57;4.72;;;;;;;9.86;92.15;102495.75;5049035;28;20403;-66
2023/05/19 02:21:51;;;;;;;11.38;4.70;;;;;;;9.79;92.76;102490.41;5052161;28;20049;-65
2023/05/19 02:24:21;;;;;;;10.77;4.45;;;;;;;9.74;93.52;102493.78;5033068;28;20049;-65
2023/05/19 02:26:50;;;;;;;11.02;4.50;;;;;;;9.73;93.96;102492.09;5033418;28;20049;-66
2023/05/19 02:29:19;;;;;;;13.98;5.10;;;;;;;9.76;93.86;102491.66;5031491;28;20092;-66
2023/05/19 02:31:47;;;;;;;11.00;4.75;;;;;;;9.80;93.59;102487.44;5050151;28;20041;-66
2023/05/19 02:34:15;;;;;;;11.93;5.05;;;;;;;9.86;93.56;102487.59;5030509;28;20092;-66
2023/05/19 02:36:43;;;;;;;9.60;4.05;;;;;;;9.70;94.31;102481.66;5050353;28;20041;-64
2023/05/19 02:39:11;;;;;;;9.35;4.38;;;;;;;9.74;94.56;102485.63;5031229;28;20484;-66
2023/05/19 02:41:39;;;;;;;12.05;4.20;;;;;;;9.69;95.20;102481.88;5038807;28;20040;-66
2023/05/19 02:44:07;;;;;;;10.65;4.40;;;;;;;9.70;95.14;102481.66;5037225;28;20034;-66
2023/05/19 02:46:35;;;;;;;9.75;4.20;;;;;;;9.56;96.42;102480.09;5038970;28;20040;-66
2023/05/19 02:49:03;;;;;;;9.05;4.32;;;;;;;9.52;96.58;102485.13;5049597;28;20041;-66
2023/05/19 02:51:31;;;;;;;10.93;4.43;;;;;;;9.58;96.57;102475.25;5056260;28;20548;-66
2023/05/19 02:53:58;;;;;;;10.60;4.80;;;;;;;9.60;96.71;102478.59;5039924;28;20055;-66
2023/05/19 02:56:27;;;;;;;9.63;4.25;;;;;;;9.66;96.61;102479.59;5046536;28;20518;-64
2023/05/19 02:58:55;;;;;;;9.63;4.57;;;;;;;9.68;96.64;102472.88;5054672;28;20049;-66
2023/05/19 03:01:22;;;;;;;11.35;4.45;;;;;;;9.70;96.50;102470.78;5053998;28;20128;-66
2023/05/19 03:03:50;;;;;;;10.18;4.75;;;;;;;9.69;96.29;102470.97;5053703;28;20049;-66
2023/05/19 03:06:18;;;;;;;11.40;4.22;;;;;;;9.64;96.88;102470.81;5033788;28;20118;-67
2023/05/19 03:08:45;;;;;;;12.85;5.13;;;;;;;9.58;97.54;102467.94;5047593;28;20457;-65
2023/05/19 03:11:14;;;;;;;10.57;4.68;;;;;;;9.55;97.51;102467.56;5041781;28;20114;-64
2023/05/19 03:13:42;;;;;;;12.30;4.97;;;;;;;9.53;98.16;102466.94;5055449;28;20132;-65
2023/05/19 03:16:10;;;;;;;11.05;4.45;;;;;;;9.49;98.43;102469.25;5056342;28;20147;-66
2023/05/19 03:18:38;;;;;;;13.60;4.70;;;;;;;9.54;98.62;102472.13;5054343;28;20511;-67
2023/05/19 03:21:06;;;;;;;11.05;4.28;;;;;;;9.45;98.79;102472.63;5064397;28;20127;-67
2023/05/19 03:23:34;;;;;;;12.80;4.72;;;;;;;9.49;99.55;102476.59;5004804;28;20049;-66
2023/05/19 03:26:03;;;;;;;10.50;4.60;;;;;;;9.44;99.51;102470.97;5055591;28;20045;-65
2023/05/19 03:28:30;;;;;;;9.07;4.47;;;;;;;9.37;99.82;102479.16;5055450;28;20045;-65
2023/05/19 03:30:58;;;;;;;13.93;4.68;;;;;;;9.34;100.00;102474.19;5029607;28;20067;-66
2023/05/19 03:33:32;;;;;;;10.82;4.45;;;;;;;9.22;100.00;102476.75;5035083;28;20053;-66
2023/05/19 03:36:00;;;;;;;11.50;5.07;;;;;;;9.27;100.00;102476.94;5040727;28;20052;-66
2023/05/19 03:38:32;;;;;;;9.02;4.57;;;;;;;9.21;100.00;102472.34;5055403;28;20067;-65
2023/05/19 03:41:00;;;;;;;9.98;4.30;;;;;;;9.20;100.00;102476.13;5064691;28;20098;-66
2023/05/19 03:43:28;;;;;;;13.25;5.07;;;;;;;9.23;100.00;102481.13;5057722;28;20072;-65
2023/05/19 03:46:00;;;;;;;11.73;4.70;;;;;;;9.27;100.00;102486.97;5057241;28;20065;-65
2023/05/19 03:49:04;;;;;;;12.70;4.60;;;;;;;9.30;100.00;102483.81;5036060;28;20108;-66
2023/05/19 03:51:33;;;;;;;10.88;4.43;;;;;;;9.31;100.00;102480.88;5048831;28;20122;-65
2023/05/19 03:54:08;;;;;;;13.50;4.82;;;;;;;9.38;100.00;102484.41;5038946;28;20049;-66
2023/05/19 03:56:38;;;;;;;11.77;4.53;;;;;;;9.44;100.00;102498.19;5034262;28;20073;-66
2023/05/19 03:59:09;;;;;;;12.43;4.80;;;;;;;9.38;100.00;102495.28;5019010;28;20128;-66
2023/05/19 04:01:37;;;;;;;10.90;4.68;;;;;;;9.37;100.00;102495.50;5071606;28;20091;-67
2023/05/19 04:04:04;;;;;;;10.20;4.70;;;;;;;9.36;100.00;102494.66;5074311;28;20099;-67
2023/05/19 04:06:32;;;;;;;9.52;4.30;;;;;;;9.39;100.00;102496.94;5071918;28;20060;-66
2023/05/19 04:09:03;;;;;;;15.77;4.90;;;;;;;9.38;100.00;102498.00;5062752;28;20045;-66
2023/05/19 04:11:30;;;;;;;10.90;4.38;;;;;;;9.30;100.00;102495.53;5053069;28;20049;-67
2023/05/19 04:13:58;;;;;;;12.40;5.10;;;;;;;9.35;100.00;102497.59;5026892;28;20061;-67
2023/05/19 04:16:26;;;;;;;11.27;4.80;;;;;;;9.39;100.00;102490.66;5046423;28;20084;-66
2023/05/19 04:18:54;;;;;;;14.02;4.88;;;;;;;9.43;100.00;102493.78;5054008;28;20473;-66
2023/05/19 04:21:22;;;;;;;11.77;4.38;;;;;;;9.43;100.00;102497.34;5036643;28;20045;-66
2023/05/19 04:23:49;;;;;;;10.95;4.50;;;;;;;9.37;100.00;102501.75;5048307;28;20167;-66
2023/05/19 04:26:20;;;;;;;9.52;4.35;;;;;;;9.37;100.00;102488.16;5032114;28;20120;-67
2023/05/19 04:28:48;;;;;;;14.10;4.70;;;;;;;9.39;100.00;102494.22;5019292;28;20128;-65
2023/05/19 04:31:17;;;;;;;10.85;4.78;;;;;;;9.46;100.00;102498.78;5037004;28;20500;-66
2023/05/19 04:33:46;;;;;;;11.57;4.60;;;;;;;9.45;100.00;102494.38;5052866;28;20045;-66
2023/05/19 04:36:17;;;;;;;15.50;5.85;;;;;;;9.43;100.00;102491.06;5053092;28;20091;-67
2023/05/19 04:38:45;;;;;;;10.65;4.88;;;;;;;9.44;100.00;102493.56;5035067;28;20048;-64
2023/05/19 04:41:15;;;;;;;9.52;4.85;;;;;;;9.48;100.00;102488.53;5024724;28;20508;-65
2023/05/19 04:43:43;;;;;;;11.88;5.00;;;;;;;9.38;100.00;102489.84;5048850;28;20079;-65
2023/05/19 04:46:12;;;;;;;12.05;5.00;;;;;;;9.29;100.00;102493.03;5041108;28;20119;-66
2023/05/19 04:48:42;;;;;;;13.95;4.85;;;;;;;9.30;100.00;102491.97;5040506;28;20123;-64
2023/05/19 04:51:12;;;;;;;12.18;5.28;;;;;;;9.33;100.00;102492.38;5063531;28;20045;-66
2023/05/19 04:53:42;;;;;;;15.93;5.68;;;;;;;9.43;100.00;102491.06;5034068;28;20045;-65
2023/05/19 04:56:14;;;;;;;11.75;5.00;;;;;;;9.43;100.00;102494.63;5032879;28;20052;-65
2023/05/19 04:58:43;;;;;;;11.45;5.18;;;;;;;9.47;100.00;102492.28;5053244;28;20128;-64
2023/05/19 05:01:12;;;;;;;10.43;4.65;;;;;;;9.48;100.00;102496.69;5036280;28;21940;-65
2023/05/19 05:03:41;;;;;;;10.73;4.70;;;;;;;9.55;100.00;102497.47;5029772;28;20049;-64
2023/05/19 05:06:10;;;;;;;10.85;5.22;;;;;;;9.47;100.00;102498.56;5043277;28;20049;-64
2023/05/19 05:08:40;;;;;;;12.20;5.93;;;;;;;9.44;100.00;102492.75;5033561;28;20060;-64
2023/05/19 05:11:08;;;;;;;12.07;5.15;;;;;;;9.44;100.00;102485.41;5021007;28;20094;-66
2023/05/19 05:13:37;;;;;;;13.48;5.55;;;;;;;9.46;100.00;102486.03;5049615;28;20531;-67
2023/05/19 05:16:05;;;;;;;12.88;5.50;;;;;;;9.44;100.00;102492.75;4695849;28;10000159;-63
2023/05/19 05:18:34;;;;;;;12.00;5.10;;;;;;;9.53;100.00;102494.16;5046066;28;20102;-66
2023/05/19 05:21:02;;;;;;;11.77;5.57;;;;;;;9.52;100.00;102497.91;5034223;28;20052;-65
2023/05/19 05:23:30;;;;;;;13.43;5.30;;;;;;;9.48;100.00;102504.84;5050556;28;20051;-66
2023/05/19 05:25:58;;;;;;;10.68;5.10;;;;;;;9.50;100.00;102502.72;5031708;28;20133;-66
2023/05/19 05:28:26;;;;;;;10.60;5.38;;;;;;;9.56;100.00;102499.97;5036179;28;20130;-65
2023/05/19 05:30:56;;;;;;;10.90;5.00;;;;;;;9.61;100.00;102493.88;5039127;28;20049;-66
2023/05/19 05:33:25;;;;;;;14.45;5.45;;;;;;;9.66;100.00;102502.19;5046966;28;20053;-63
2023/05/19 05:35:54;;;;;;;13.30;5.72;;;;;;;9.75;100.00;102505.50;5031143;28;20093;-63
2023/05/19 05:38:22;;;;;;;11.32;5.40;;;;;;;9.82;100.00;102503.56;5062610;28;20045;-63
2023/05/19 05:40:49;;;;;;;11.98;5.78;;;;;;;9.90;100.00;102506.00;5059150;28;20108;-64
2023/05/19 05:43:17;;;;;;;11.68;5.57;;;;;;;9.89;100.00;102509.78;5034862;28;20065;-65
2023/05/19 05:45:51;;;;;;;12.10;4.65;;;;;;;9.94;100.00;102509.13;5077354;28;20068;-66
2023/05/19 05:48:20;;;;;;;13.73;5.80;;;;;;;9.98;100.00;102505.72;5051216;28;20063;-61
2023/05/19 05:50:49;;;;;;;10.23;5.18;;;;;;;10.00;100.00;102502.75;5063604;28;20044;-65
2023/05/19 05:53:21;;;;;;;11.20;5.88;;;;;;;10.10;100.00;102504.97;5035014;28;20053;-67
2023/05/19 05:55:52;;;;;;;11.77;5.13;;;;;;;10.12;99.01;102490.09;5034051;28;20447;-67
2023/05/19 05:58:23;;;;;;;15.27;5.85;;;;;;;10.15;99.07;102495.09;5047232;28;20064;-65
2023/05/19 06:00:52;;;;;;;11.00;5.60;;;;;;;10.12;98.14;102495.53;5060720;28;20049;-67
2023/05/19 06:03:22;;;;;;;12.77;5.25;;;;;;;10.18;97.95;102504.72;5042589;28;20049;-67
2023/05/19 06:05:52;;;;;;;10.07;4.78;;;;;;;10.22;97.93;102506.78;5044096;28;20057;-67
2023/05/19 06:08:20;;;;;;;14.02;5.50;;;;;;;10.27;97.63;102487.03;5045832;28;20154;-68
2023/05/19 06:10:48;;;;;;;10.57;4.53;;;;;;;10.32;97.41;102505.44;5052330;28;20048;-66
2023/05/19 06:13:22;;;;;;;12.57;5.38;;;;;;;10.33;96.68;102498.94;5053440;28;20060;-67
2023/05/19 06:15:52;;;;;;;16.65;5.97;;;;;;;10.35;96.91;102499.56;5028536;28;20099;-68
2023/05/19 06:18:25;;;;;;;18.23;6.07;;;;;;;10.55;97.72;102505.63;5046143;28;20060;-66
2023/05/19 06:20:52;;;;;;;14.93;5.78;;;;;;;10.59;94.95;102506.00;5031118;28;20049;-66
2023/05/19 06:23:20;;;;;;;13.35;5.13;;;;;;;10.61;94.68;102503.91;5031763;28;20486;-66
2023/05/19 06:25:49;;;;;;;10.13;5.22;;;;;;;10.63;94.88;102499.88;5032726;28;20096;-65
2023/05/19 06:28:17;;;;;;;11.70;5.10;;;;;;;10.64;94.41;102501.53;5050352;28;20136;-65
2023/05/19 06:30:44;;;;;;;12.18;5.13;;;;;;;10.68;93.53;102503.78;5056457;28;20052;-67
2023/05/19 06:33:29;;;;;;;15.82;5.25;;;;;;;10.72;93.72;102503.13;5056241;28;20128;-68
2023/05/19 06:35:57;;;;;;;12.85;4.90;;;;;;;10.76;92.36;102495.34;5039622;28;20056;-66
2023/05/19 06:38:25;;;;;;;14.75;5.88;;;;;;;10.81;92.72;102515.38;5072217;28;20397;-65
2023/05/19 06:40:54;;;;;;;14.75;5.65;;;;;;;10.87;91.66;102508.19;5039413;28;20072;-67
2023/05/19 06:43:24;;;;;;;12.30;5.57;;;;;;;10.90;91.31;102507.75;5055786;28;20044;-67
2023/05/19 06:45:56;;;;;;;10.57;4.82;;;;;;;10.95;91.23;102510.63;5039200;28;20067;-66
2023/05/19 06:48:25;;;;;;;12.95;5.22;;;;;;;11.00;91.26;102512.66;5057051;28;20057;-66
2023/05/19 06:50:53;;;;;;;12.20;4.53;;;;;;;11.03;90.11;102501.28;5039436;28;20497;-65
2023/05/19 06:53:21;;;;;;;13.50;5.00;;;;;;;11.07;88.95;102514.22;5055325;28;20084;-67
2023/05/19 06:55:51;;;;;;;11.80;5.10;;;;;;;11.11;88.13;102503.69;5056917;28;20374;-66
2023/05/19 06:58:30;;;;;;;13.65;5.20;;;;;;;11.16;89.18;102505.72;5075761;28;20051;-65
2023/05/19 07:00:59;;;;;;;11.27;4.60;;;;;;;11.20;88.01;102505.03;5075682;28;20113;-65
2023/05/19 07:03:32;;;;;;;12.60;4.68;;;;;;;11.24;89.34;102500.78;5075771;28;20049;-65
2023/05/19 07:06:00;;;;;;;16.92;4.90;;;;;;;11.30;87.24;102513.50;5042468;28;20067;-66
2023/05/19 07:08:28;;;;;;;12.57;4.88;;;;;;;11.34;86.85;102508.41;5057391;28;20075;-66
2023/05/19 07:10:59;;;;;;;12.68;4.75;;;;;;;11.39;85.64;102511.28;5075824;28;20044;-66
2023/05/19 07:13:28;;;;;;;10.23;4.70;;;;;;;11.41;86.04;102505.59;5075394;28;20048;-67
2023/05/19 07:15:57;;;;;;;12.15;4.80;;;;;;;11.45;85.75;102504.06;5055325;28;20095;-67
2023/05/19 07:18:30;;;;;;;13.57;4.82;;;;;;;11.50;84.57;102506.94;5039789;28;20063;-64
2023/05/19 07:20:58;;;;;;;9.32;4.03;;;;;;;11.52;84.77;102511.09;5055977;28;20041;-66
2023/05/19 07:23:26;;;;;;;11.02;4.25;;;;;;;11.55;84.26;102514.44;5054801;28;20048;-65
2023/05/19 07:25:57;;;;;;;10.88;4.57;;;;;;;11.58;84.54;102506.59;5056847;28;20080;-67
2023/05/19 07:28:25;;;;;;;13.80;4.82;;;;;;;11.63;83.65;102508.63;5056753;28;20099;-66
2023/05/19 07:30:53;;;;;;;12.93;5.10;;;;;;;11.68;82.73;102508.75;5055076;28;20063;-66
2023/05/19 07:33:20;;;;;;;11.85;4.32;;;;;;;11.71;82.82;102514.59;5054903;28;20411;-65
2023/05/19 07:35:48;;;;;;;15.70;5.05;;;;;;;11.76;82.12;102507.56;5059180;28;20044;-66
2023/05/19 07:38:16;;;;;;;13.63;4.40;;;;;;;11.78;82.64;102509.00;5075053;28;20056;-66
2023/05/19 07:40:44;;;;;;;11.50;4.35;;;;;;;11.83;80.94;102503.66;5074666;28;20106;-66
2023/05/19 07:43:11;;;;;;;10.35;4.00;;;;;;;11.89;82.16;102508.22;5044848;28;20076;-66
2023/05/19 07:45:39;;;;;;;8.90;4.22;;;;;;;11.94;82.04;102513.81;5057800;28;20098;-65
2023/05/19 07:48:07;;;;;;;13.13;4.43;;;;;;;12.04;82.67;102515.13;5076259;28;20043;-65
2023/05/19 07:50:35;;;;;;;12.30;4.97;;;;;;;12.07;81.38;102512.75;5075958;28;20056;-65
2023/05/19 07:53:03;;;;;;;12.23;4.72;;;;;;;12.12;81.91;102509.31;5066604;28;20052;-65
2023/05/19 07:55:31;;;;;;;14.80;4.50;;;;;;;12.17;81.82;102505.88;5061564;28;20048;-66
2023/05/19 07:57:58;;;;;;;13.35;4.43;;;;;;;12.20;81.85;102506.25;5073825;28;20123;-66
2023/05/19 08:00:27;;;;;;;13.02;4.60;;;;;;;12.29;80.36;102504.81;5075677;28;20052;-66
2023/05/19 08:02:56;;;;;;;15.10;4.60;;;;;;;12.38;81.37;102501.72;5074587;28;20048;-65
2023/05/19 08:05:24;;;;;;;12.80;4.65;;;;;;;12.48;78.89;102499.19;5075567;28;20106;-66
2023/05/19 08:07:52;;;;;;;14.15;5.15;;;;;;;12.51;77.98;102496.00;5072696;28;20040;-67
2023/05/19 08:10:20;;;;;;;16.90;5.22;;;;;;;12.57;76.02;102504.06;5055345;28;20087;-65
2023/05/19 08:12:47;;;;;;;15.25;5.10;;;;;;;12.58;76.69;102496.72;5055231;28;20095;-66
2023/05/19 08:15:15;;;;;;;12.57;4.75;;;;;;;12.59;75.28;102492.91;5055756;28;20083;-65
2023/05/19 08:17:43;;;;;;;14.48;4.47;;;;;;;12.62;76.79;102492.41;5053387;28;20536;-65
2023/05/19 08:20:11;;;;;;;17.13;4.82;;;;;;;12.66;75.95;102488.13;5075313;28;20520;-65
2023/05/19 08:22:39;;;;;;;10.95;4.18;;;;;;;12.75;75.07;102486.69;5069090;28;20560;-66
2023/05/19 08:25:07;;;;;;;12.15;4.75;;;;;;;12.79;75.26;102482.41;5056268;28;20416;-65
2023/05/19 08:27:35;;;;;;;12.68;4.30;;;;;;;12.81;74.99;102479.41;5075480;28;20036;-65
2023/05/19 08:30:03;;;;;;;13.40;4.18;;;;;;;12.88;74.16;102482.81;5074249;28;20052;-66
2023/05/19 08:32:30;;;;;;;13.50;4.10;;;;;;;12.99;73.88;102472.94;5075989;28;20465;-68
2023/05/19 08:34:58;;;;;;;11.40;4.03;;;;;;;13.08;73.86;102462.41;5067928;28;20440;-66
2023/05/19 08:37:26;;;;;;;14.02;4.07;;;;;;;13.22;72.09;102467.34;5055337;28;20128;-66
2023/05/19 08:39:53;;;;;;;12.68;4.35;;;;;;;13.27;72.43;102468.50;5055396;28;20053;-65
2023/05/19 08:42:21;;;;;;;11.98;4.20;;;;;;;13.27;69.91;102460.31;5055334;28;20523;-65
2023/05/19 08:44:49;;;;;;;14.80;4.53;;;;;;;13.24;70.10;102463.53;5054605;28;20060;-65
2023/05/19 08:47:17;;;;;;;12.30;4.18;;;;;;;13.27;70.01;102461.16;5054610;28;20041;-65
2023/05/19 08:49:46;;;;;;;11.27;3.72;;;;;;;13.28;70.05;102445.59;5054908;28;20076;-65
2023/05/19 08:52:49;;;;;;;10.35;3.50;;;;;;;13.36;70.95;102451.47;5037603;28;20465;-66
2023/05/19 08:55:34;;;;;;;11.45;4.05;;;;;;;13.51;69.14;102448.16;5002270;28;20533;-65
2023/05/19 08:58:03;;;;;;;13.48;3.70;;;;;;;13.62;67.19;102440.97;5035864;28;20049;-65
2023/05/19 09:00:32;;;;;;;11.30;4.40;;;;;;;13.73;65.84;102439.22;5050303;28;20045;-64
2023/05/19 09:03:01;;;;;;;9.60;3.25;;;;;;;13.75;65.37;102445.28;5038646;28;20084;-64
2023/05/19 09:05:45;;;;;;;9.23;3.33;;;;;;;13.96;64.12;102439.03;5041825;28;20061;-65
2023/05/19 09:08:13;;;;;;;16.10;3.50;;;;;;;14.10;61.78;102446.91;5055548;28;20448;-65
2023/05/19 09:10:41;;;;;;;9.80;3.30;;;;;;;14.13;60.43;102435.44;5053071;28;20059;-65
2023/05/19 09:13:09;;;;;;;9.27;3.13;;;;;;;14.06;60.98;102436.44;5053318;28;20060;-66
2023/05/19 09:15:38;;;;;;;11.60;3.00;;;;;;;14.07;59.27;102438.13;5052498;28;20091;-66
2023/05/19 09:18:10;;;;;;;11.48;3.65;;;;;;;14.17;59.07;102437.44;5066312;28;20052;-66
2023/05/19 09:20:43;;;;;;;10.85;3.55;;;;;;;14.17;59.57;102433.88;5036657;28;20124;-65
2023/05/19 09:23:16;;;;;;;10.20;3.35;;;;;;;14.28;59.48;102425.50;5054088;28;20114;-65
2023/05/19 09:25:50;;;;;;;10.32;3.80;;;;;;;14.28;59.59;102414.53;5066222;28;20051;-66
2023/05/19 09:28:26;;;;;;;12.68;3.50;;;;;;;14.30;59.90;102422.50;5056989;28;20397;-67
2023/05/19 09:31:06;;;;;;;9.07;3.13;;;;;;;14.39;57.05;102417.44;5043139;28;20049;-66
2023/05/19 09:33:35;;;;;;;8.00;3.17;;;;;;;14.40;55.38;102419.91;5054339;28;20136;-64
2023/05/19 09:36:04;;;;;;;10.50;3.30;;;;;;;14.40;55.39;102413.59;5060061;28;20054;-64
2023/05/19 09:38:33;;;;;;;10.07;3.33;;;;;;;14.54;53.77;102414.06;5059266;28;20045;-64
2023/05/19 09:41:01;;;;;;;12.15;3.13;;;;;;;14.51;54.41;102414.56;5043557;28;20092;-63
2023/05/19 09:43:30;;;;;;;7.93;2.72;;;;;;;14.47;53.63;102412.31;5037684;28;20075;-63
2023/05/19 09:46:05;;;;;;;10.13;2.90;;;;;;;14.66;54.35;102409.28;5085762;28;20048;-63
2023/05/19 09:48:35;;;;;;;10.07;3.45;;;;;;;14.80;54.91;102407.78;5086598;28;20485;-65
2023/05/19 09:51:05;;;;;;;13.25;3.88;;;;;;;14.89;54.60;102417.22;5021236;28;20047;-66
2023/05/19 09:53:34;;;;;;;14.07;3.53;;;;;;;14.88;52.78;102421.03;5063692;28;20056;-63
2023/05/19 09:56:02;;;;;;;11.93;3.45;;;;;;;14.83;53.11;102418.25;5068846;28;20056;-62
2023/05/19 09:58:34;;;;;;;13.80;3.85;;;;;;;14.88;54.08;102412.81;5062295;28;20045;-65
2023/05/19 10:01:03;;;;;;;11.85;3.45;;;;;;;14.87;53.89;102413.91;5036429;28;20596;-65
2023/05/19 10:03:31;;;;;;;10.70;3.30;;;;;;;14.85;54.16;102427.06;5058381;28;20555;-66
2023/05/19 10:06:01;;;;;;;12.60;3.85;;;;;;;14.82;54.04;102408.38;5042751;28;20502;-64
2023/05/19 10:08:29;;;;;;;15.93;4.35;;;;;;;14.97;54.72;102407.69;5041120;28;20406;-65
2023/05/19 10:10:57;;;;;;;13.15;4.13;;;;;;;15.05;53.66;102417.38;5006973;28;20052;-65
2023/05/19 10:13:25;;;;;;;10.82;3.88;;;;;;;14.98;53.80;102411.28;5055304;28;20052;-65
2023/05/19 10:15:54;;;;;;;13.70;4.10;;;;;;;15.05;54.88;102417.38;5078847;28;20249;-63
2023/05/19 10:18:28;;;;;;;12.07;3.90;;;;;;;15.12;54.88;102418.00;5040218;28;20041;-66
2023/05/19 10:20:56;;;;;;;13.18;4.00;;;;;;;15.09;54.02;102418.53;5040606;28;20493;-65
2023/05/19 10:23:25;;;;;;;11.88;3.53;;;;;;;14.97;53.89;102407.69;5043649;28;20057;-65
2023/05/19 10:25:56;;;;;;;10.65;3.50;;;;;;;14.94;53.79;102407.41;5078600;28;20562;-65
2023/05/19 10:28:30;;;;;;;12.57;3.95;;;;;;;14.98;53.45;102400.28;5079048;28;20479;-65
2023/05/19 10:31:00;;;;;;;29.55;12.90;;;;;;;14.98;53.22;102403.03;5057914;28;20079;-66
2023/05/19 10:33:54;;;;;;;75.35;34.92;;;;;;;15.11;55.14;102408.13;5065813;28;20049;-66
2023/05/19 10:36:43;;;;;;;11.23;4.03;;;;;;;15.17;54.93;102404.31;5077822;28;20560;-65
2023/05/19 10:39:26;;;;;;;67.55;29.67;;;;;;;15.26;54.03;102402.75;5078601;28;20098;-65
2023/05/19 10:42:18;;;;;;;81.32;39.28;;;;;;;15.30;57.27;102384.69;5054405;28;20045;-64
2023/05/19 10:45:07;;;;;;;23.90;9.93;;;;;;;15.33;53.61;102386.06;5055656;28;20056;-65
2023/05/19 10:47:35;;;;;;;38.83;18.65;;;;;;;15.36;51.89;102379.22;5060094;28;20554;-65
2023/05/19 10:50:05;;;;;;;26.70;10.93;;;;;;;15.40;51.20;102377.63;5057460;28;20063;-64
2023/05/19 10:52:37;;;;;;;17.63;5.72;;;;;;;15.47;50.05;102384.53;5061340;28;20045;-64
2023/05/19 10:55:16;;;;;;;14.27;5.78;;;;;;;15.47;49.40;102383.72;5079746;28;20106;-66
2023/05/19 10:57:55;;;;;;;9.38;3.55;;;;;;;15.46;50.15;102382.06;5079679;28;20416;-64
2023/05/19 11:00:28;;;;;;;14.02;5.63;;;;;;;15.49;50.20;102387.00;5059692;28;20049;-64
2023/05/19 11:03:12;;;;;;;13.55;4.32;;;;;;;15.55;49.57;102381.28;5040986;28;20540;-65
2023/05/19 11:05:44;;;;;;;8.68;3.25;;;;;;;15.56;49.49;102379.38;5058999;28;20136;-64
2023/05/19 11:08:12;;;;;;;16.23;3.60;;;;;;;15.58;49.83;102377.19;5058390;28;20054;-65
2023/05/19 11:10:44;;;;;;;13.88;4.05;;;;;;;15.66;47.88;102387.72;5058328;28;20041;-66
2023/05/19 11:13:22;;;;;;;12.60;4.28;;;;;;;15.65;47.39;102390.72;5054407;28;20092;-66
2023/05/19 11:15:50;;;;;;;8.73;3.47;;;;;;;15.61;48.75;102384.94;5059519;28;20074;-65
2023/05/19 11:18:20;;;;;;;13.25;4.30;;;;;;;15.61;48.94;102382.19;5065496;28;20033;-66
2023/05/19 11:20:57;;;;;;;15.07;5.30;;;;;;;15.62;48.26;102386.56;5045575;28;20536;-65
2023/05/19 11:23:25;;;;;;;15.65;5.60;;;;;;;15.60;48.38;102377.75;5065582;28;20056;-64
2023/05/19 11:25:53;;;;;;;13.85;3.97;;;;;;;15.64;49.95;102378.91;5055616;28;20045;-65
2023/05/19 11:28:26;;;;;;;19.58;8.52;;;;;;;15.69;49.43;102378.94;5056798;28;20033;-64
2023/05/19 11:30:58;;;;;;;33.35;15.43;;;;;;;15.70;49.84;102366.88;5059311;28;20045;-65
2023/05/19 11:33:26;;;;;;;11.63;3.97;;;;;;;15.84;49.64;102366.41;5068422;28;20052;-63
2023/05/19 11:35:58;;;;;;;12.57;4.43;;;;;;;15.92;48.75;102368.66;5054969;28;20045;-66